Berea, West Virginia
Current Conditions -  °F | °C
As of 8:53 PM on Sunday 23 Nov 2014 (Local Time) from KPKB Reporting Station
Light Rain Light Rain  
Wind Chill: 56°   Ceiling: 10000
Heat Index: 56°   Visibility: 8mi
Dew Point: 49°   Wind: 7mph
Humidity: 77%   Direction: 130°SE
Pressure: 29.62"   Gusts: NA
Location:  39.14°N, 80.93°W
Report Text: KPKB 240153Z 13006KT 8SM -RA OVC100 13/09 A2962 RMK AO2 SLP028 P0001 T01330094
Loading
Personal Weather Stations






























Interactive Weather Map New forecast layout! Learn more

10-Day Weather Forecast

Advertisements
Track Severe Weather on mobile